createdAt,value
2022-12-20T00:01:36.583Z,55.47
2022-12-20T00:04:08.084Z,53.63
2022-12-20T00:06:36.242Z,52.62
2022-12-20T00:09:06.566Z,46.70
2022-12-20T00:11:34.153Z,52.72
2022-12-20T00:14:01.513Z,54.75
2022-12-20T00:16:29.840Z,50.65
2022-12-20T00:18:59.249Z,58.87
2022-12-20T00:21:27.585Z,51.97
2022-12-20T00:23:55.588Z,50.67
2022-12-20T00:26:26.350Z,53.47
2022-12-20T00:28:53.945Z,56.83
2022-12-20T00:31:22.887Z,52.50
2022-12-20T00:33:52.097Z,50.50
2022-12-20T00:36:19.875Z,54.75
2022-12-20T00:38:49.380Z,49.83
2022-12-20T00:41:21.372Z,54.42
2022-12-20T00:43:49.584Z,51.47
2022-12-20T00:46:18.186Z,52.13
2022-12-20T00:48:45.641Z,54.33
2022-12-20T00:51:16.780Z,52.25
2022-12-20T00:53:44.621Z,49.20
2022-12-20T00:56:12.343Z,56.78
2022-12-20T00:58:41.304Z,57.75
2022-12-20T01:01:21.782Z,55.67
2022-12-20T01:03:51.029Z,64.30
2022-12-20T01:06:19.212Z,59.50
2022-12-20T01:08:46.841Z,57.80
2022-12-20T01:11:16.816Z,62.80
2022-12-20T01:13:46.594Z,56.37
2022-12-20T01:16:28.968Z,53.70
2022-12-20T01:18:56.601Z,54.22
2022-12-20T01:21:26.180Z,54.13
2022-12-20T01:23:54.265Z,50.05
2022-12-20T01:26:23.315Z,51.55
2022-12-20T01:28:54.944Z,51.40
2022-12-20T01:31:22.540Z,52.58
2022-12-20T01:33:50.538Z,46.75
2022-12-20T01:36:21.349Z,50.40
2022-12-20T01:38:48.715Z,49.58
2022-12-20T01:41:18.674Z,49.70
2022-12-20T01:43:56.963Z,46.88
2022-12-20T01:46:26.910Z,48.55
2022-12-20T01:49:13.463Z,41.45
2022-12-20T01:51:43.563Z,42.75
2022-12-20T01:54:16.675Z,45.92
2022-12-20T01:56:47.388Z,43.72
2022-12-20T01:59:15.124Z,47.03
2022-12-20T02:01:43.230Z,44.35
2022-12-20T02:04:12.178Z,39.88
2022-12-20T02:06:39.694Z,49.10
2022-12-20T02:09:08.459Z,40.75
2022-12-20T02:11:35.941Z,42.03
2022-12-20T02:14:16.838Z,44.50
2022-12-20T02:16:58.429Z,44.83
2022-12-20T02:19:40.944Z,45.30
2022-12-20T02:22:16.662Z,42.90
2022-12-20T02:24:53.132Z,45.08
2022-12-20T02:27:27.610Z,40.60
2022-12-20T02:30:06.658Z,45.08
2022-12-20T02:32:43.231Z,44.00
2022-12-20T02:35:14.946Z,47.22
2022-12-20T02:37:54.796Z,47.22
2022-12-20T02:40:25.200Z,46.35
2022-12-20T02:42:56.330Z,48.75
2022-12-20T02:45:28.016Z,43.40
2022-12-20T02:48:01.268Z,46.90
2022-12-20T02:50:35.872Z,51.67
2022-12-20T02:53:05.236Z,45.17
2022-12-20T02:56:00.387Z,44.50
2022-12-20T02:58:42.984Z,44.58
2022-12-20T03:01:23.811Z,39.90
2022-12-20T03:03:51.717Z,45.65
2022-12-20T03:06:19.575Z,47.33
2022-12-20T03:08:47.338Z,46.28
2022-12-20T03:11:15.045Z,46.95
2022-12-20T03:13:42.699Z,46.03
2022-12-20T03:16:10.944Z,45.20
2022-12-20T03:18:39.093Z,46.08
2022-12-20T03:21:06.449Z,44.70
2022-12-20T03:23:34.184Z,45.67
2022-12-20T03:26:01.798Z,41.20
2022-12-20T03:28:30.445Z,42.30
2022-12-20T03:30:58.005Z,40.58
2022-12-20T03:33:25.810Z,43.78
2022-12-20T03:35:53.367Z,46.17
2022-12-20T03:38:21.464Z,43.28
2022-12-20T03:40:49.048Z,42.08
2022-12-20T03:43:17.043Z,38.53
2022-12-20T03:45:44.643Z,42.72
2022-12-20T03:48:12.294Z,43.08
2022-12-20T03:50:39.689Z,47.83
2022-12-20T03:53:07.688Z,42.95
2022-12-20T03:55:35.328Z,40.72
2022-12-20T03:58:02.793Z,43.42
2022-12-20T04:00:30.714Z,40.88
2022-12-20T04:02:59.050Z,44.97
2022-12-20T04:05:27.030Z,41.37
2022-12-20T04:07:54.434Z,45.38
2022-12-20T04:10:22.027Z,45.17
2022-12-20T04:12:49.416Z,38.35
2022-12-20T04:15:17.116Z,43.83
2022-12-20T04:17:45.471Z,39.85
2022-12-20T04:20:20.400Z,42.50
2022-12-20T04:22:50.038Z,38.00
2022-12-20T04:25:19.825Z,41.50
2022-12-20T04:27:47.790Z,39.22
2022-12-20T04:30:15.509Z,38.70
2022-12-20T04:32:43.203Z,38.00
2022-12-20T04:35:11.301Z,45.45
2022-12-20T04:37:39.525Z,43.25
2022-12-20T04:40:07.728Z,40.75
2022-12-20T04:42:36.374Z,39.38
2022-12-20T04:45:04.389Z,40.12
2022-12-20T04:47:32.099Z,34.95
2022-12-20T04:49:59.562Z,36.85
2022-12-20T04:52:48.018Z,39.72
2022-12-20T04:55:16.140Z,34.88
2022-12-20T04:57:43.886Z,34.08
2022-12-20T05:00:11.987Z,35.22
2022-12-20T05:02:39.925Z,34.58
2022-12-20T05:05:08.599Z,37.05
2022-12-20T05:07:36.755Z,39.83
2022-12-20T05:10:04.649Z,40.28
2022-12-20T05:12:32.419Z,40.03
2022-12-20T05:15:00.568Z,36.88
2022-12-20T05:17:27.913Z,35.42
2022-12-20T05:19:55.515Z,34.17
2022-12-20T05:22:41.466Z,36.70
2022-12-20T05:25:31.751Z,39.28
2022-12-20T05:27:59.848Z,41.72
2022-12-20T05:30:27.769Z,37.80
2022-12-20T05:32:55.552Z,37.20
2022-12-20T05:35:23.007Z,33.67
2022-12-20T05:37:52.821Z,36.50
2022-12-20T05:40:20.732Z,37.97
2022-12-20T05:42:48.104Z,37.90
2022-12-20T05:45:15.933Z,36.53
2022-12-20T05:47:44.938Z,35.75
2022-12-20T05:50:18.535Z,41.50
2022-12-20T05:53:07.454Z,39.17
2022-12-20T05:55:40.528Z,37.75
2022-12-20T05:58:08.388Z,35.70
2022-12-20T06:00:37.373Z,35.60
2022-12-20T06:03:05.949Z,37.20
2022-12-20T06:05:38.813Z,37.88
2022-12-20T06:08:07.255Z,40.67
2022-12-20T06:10:35.134Z,42.47
2022-12-20T06:13:03.847Z,37.88
2022-12-20T06:15:32.100Z,38.70
2022-12-20T06:18:00.591Z,39.97
2022-12-20T06:20:28.628Z,41.58
2022-12-20T06:22:58.126Z,40.22
2022-12-20T06:25:28.430Z,39.97
2022-12-20T06:27:56.477Z,35.67
2022-12-20T06:30:30.238Z,35.50
2022-12-20T06:33:04.245Z,35.58
2022-12-20T06:35:32.231Z,36.10
2022-12-20T06:37:59.694Z,35.80
2022-12-20T06:40:27.847Z,38.63
2022-12-20T06:42:56.558Z,36.42
2022-12-20T06:45:24.131Z,39.30
2022-12-20T06:47:52.765Z,35.47
2022-12-20T06:50:20.596Z,36.42
2022-12-20T06:52:47.940Z,37.03
2022-12-20T06:55:15.681Z,38.17
2022-12-20T06:57:43.120Z,36.58
2022-12-20T07:00:12.794Z,33.17
2022-12-20T07:02:40.649Z,34.22
2022-12-20T07:05:08.253Z,35.38
2022-12-20T07:07:42.176Z,32.30
2022-12-20T07:10:12.391Z,32.95
2022-12-20T07:12:45.474Z,35.67
2022-12-20T07:15:15.756Z,29.90
2022-12-20T07:17:43.212Z,31.48
2022-12-20T07:20:13.890Z,30.52
2022-12-20T07:22:42.264Z,35.08
2022-12-20T07:25:11.335Z,37.55
2022-12-20T07:27:38.734Z,34.22
2022-12-20T07:30:06.863Z,32.47
2022-12-20T07:32:34.285Z,38.40
2022-12-20T07:35:01.716Z,35.80
2022-12-20T07:37:29.951Z,35.00
2022-12-20T07:39:57.325Z,33.70
2022-12-20T07:42:28.990Z,34.65
2022-12-20T07:45:03.661Z,35.13
2022-12-20T07:47:31.285Z,32.90
2022-12-20T07:49:58.685Z,31.55
2022-12-20T07:52:29.220Z,30.30
2022-12-20T07:55:01.981Z,29.80
2022-12-20T07:57:38.114Z,29.87
2022-12-20T08:00:06.279Z,31.92
2022-12-20T08:02:44.154Z,30.08
2022-12-20T08:05:12.552Z,31.83
2022-12-20T08:07:41.747Z,26.23
2022-12-20T08:10:11.263Z,26.90
2022-12-20T08:12:39.256Z,29.55
2022-12-20T08:15:07.525Z,31.20
2022-12-20T08:17:35.030Z,30.30
2022-12-20T08:20:03.490Z,32.38
2022-12-20T08:22:30.855Z,27.87
2022-12-20T08:24:58.236Z,30.60
2022-12-20T08:27:25.904Z,34.85
2022-12-20T08:29:53.293Z,32.88
2022-12-20T08:32:20.635Z,32.20
2022-12-20T08:34:48.418Z,30.70
2022-12-20T08:37:19.610Z,32.97
2022-12-20T08:39:46.982Z,26.98
2022-12-20T08:42:14.707Z,27.37
2022-12-20T08:44:42.084Z,27.65
2022-12-20T08:47:10.331Z,33.45
2022-12-20T08:49:42.419Z,29.95
2022-12-20T08:52:13.095Z,29.25
2022-12-20T08:54:40.766Z,31.23
2022-12-20T08:57:08.468Z,30.70
2022-12-20T08:59:35.866Z,32.97
2022-12-20T09:02:03.620Z,28.45
2022-12-20T09:04:31.218Z,29.58
2022-12-20T09:06:58.557Z,29.45
2022-12-20T09:09:26.176Z,29.05
2022-12-20T09:11:53.537Z,28.02
2022-12-20T09:14:20.878Z,32.17
2022-12-20T09:16:49.159Z,23.38
2022-12-20T09:19:16.507Z,26.10
2022-12-20T09:21:44.281Z,30.90
2022-12-20T09:24:11.956Z,28.20
2022-12-20T09:26:40.806Z,28.20
2022-12-20T09:29:08.262Z,114.05
2022-12-20T09:31:37.072Z,52.03
2022-12-20T09:34:04.529Z,26.17
2022-12-20T09:36:32.095Z,22.37
2022-12-20T09:38:59.841Z,23.70
2022-12-20T09:41:38.584Z,27.02
2022-12-20T09:44:33.841Z,24.10
2022-12-20T09:47:10.475Z,24.70
2022-12-20T09:49:42.070Z,24.37
2022-12-20T09:52:46.390Z,25.58
2022-12-20T09:55:32.763Z,27.62
2022-12-20T09:58:27.807Z,28.58
2022-12-20T10:00:55.768Z,26.75
2022-12-20T10:03:30.083Z,23.90
2022-12-20T10:06:04.649Z,26.02
2022-12-20T10:08:50.644Z,27.77
2022-12-20T10:11:36.627Z,27.00
2022-12-20T10:14:45.226Z,25.17
2022-12-20T10:17:36.156Z,24.48
2022-12-20T10:20:19.301Z,26.33
2022-12-20T10:22:53.323Z,23.65
2022-12-20T10:25:30.297Z,28.62
2022-12-20T10:27:58.581Z,26.12
2022-12-20T10:30:27.433Z,25.48
2022-12-20T10:32:56.931Z,23.77
2022-12-20T10:35:46.369Z,25.58
2022-12-20T10:38:17.542Z,26.15
2022-12-20T10:43:51.777Z,25.52
2022-12-20T10:46:19.474Z,28.70
2022-12-20T10:48:49.050Z,24.92
2022-12-20T10:51:20.168Z,23.30
2022-12-20T10:53:59.746Z,26.25
2022-12-20T10:56:32.592Z,24.55
2022-12-20T10:59:30.620Z,25.62
2022-12-20T11:01:58.391Z,23.60
2022-12-20T11:04:28.899Z,26.05
2022-12-20T11:06:57.197Z,26.20
2022-12-20T11:09:37.688Z,23.77
2022-12-20T11:12:16.553Z,24.67
2022-12-20T11:14:45.988Z,28.08
2022-12-20T11:17:29.786Z,27.30
2022-12-20T11:20:26.546Z,25.88
2022-12-20T11:23:19.173Z,25.50
2022-12-20T11:28:39.163Z,23.00
2022-12-20T11:31:24.811Z,26.85
2022-12-20T11:33:55.246Z,25.77
2022-12-20T11:36:50.810Z,25.92
2022-12-20T11:39:39.234Z,27.48
2022-12-20T11:42:16.842Z,25.37
2022-12-20T11:45:03.295Z,23.12
2022-12-20T11:47:48.704Z,24.30
2022-12-20T11:50:36.856Z,24.25
2022-12-20T11:53:31.949Z,18.20
2022-12-20T11:56:02.803Z,28.12
2022-12-20T11:58:52.780Z,26.85
2022-12-20T12:01:25.555Z,24.52
2022-12-20T12:04:13.588Z,26.23
2022-12-20T12:06:46.385Z,23.83
2022-12-20T12:09:17.136Z,24.52
2022-12-20T12:12:08.742Z,23.75
2022-12-20T12:14:52.361Z,23.77
2022-12-20T12:17:44.359Z,28.98
2022-12-20T12:20:28.424Z,25.02
2022-12-20T12:23:02.197Z,23.45
2022-12-20T12:25:29.904Z,22.83
2022-12-20T12:27:57.298Z,27.00
2022-12-20T12:30:24.734Z,21.95
2022-12-20T12:32:56.938Z,25.50
2022-12-20T12:35:59.881Z,22.60
2022-12-20T12:38:55.650Z,25.70
2022-12-20T12:42:04.859Z,29.45
2022-12-20T12:44:38.941Z,27.42
2022-12-20T12:47:12.758Z,25.33
2022-12-20T12:49:40.893Z,26.10
2022-12-20T12:52:40.287Z,24.77
2022-12-20T12:55:35.778Z,27.17
2022-12-20T12:58:24.714Z,25.10
2022-12-20T13:00:52.384Z,26.40
2022-12-20T13:03:41.560Z,30.48
2022-12-20T13:06:28.373Z,27.52
2022-12-20T13:08:55.763Z,23.65
2022-12-20T13:11:34.319Z,24.63
2022-12-20T13:14:27.419Z,28.42
2022-12-20T13:17:25.561Z,26.23
2022-12-20T13:19:55.384Z,27.02
2022-12-20T13:22:26.838Z,29.17
2022-12-20T13:24:58.044Z,26.25
2022-12-20T13:27:31.028Z,31.25
2022-12-20T13:30:00.186Z,27.87
2022-12-20T13:32:46.622Z,24.98
2022-12-20T13:35:25.978Z,22.83
2022-12-20T13:38:05.726Z,26.15
2022-12-20T13:40:43.921Z,27.85
2022-12-20T13:43:21.781Z,26.67
2022-12-20T13:46:04.542Z,25.62
2022-12-20T13:48:38.314Z,25.98
2022-12-20T13:51:08.101Z,24.83
2022-12-20T13:53:36.090Z,30.05
2022-12-20T13:56:42.366Z,27.02
2022-12-20T13:59:27.839Z,26.17
2022-12-20T14:01:59.092Z,25.50
2022-12-20T14:04:28.603Z,28.95
2022-12-20T14:06:58.643Z,27.05
2022-12-20T14:09:28.620Z,26.73
2022-12-20T14:12:21.179Z,26.83
2022-12-20T14:14:53.181Z,25.83
2022-12-20T14:17:25.897Z,29.35
2022-12-20T14:20:07.176Z,28.52
2022-12-20T14:22:36.204Z,28.20
2022-12-20T14:25:05.645Z,28.45
2022-12-20T14:27:36.010Z,29.45
2022-12-20T14:30:05.769Z,30.05
2022-12-20T14:32:33.158Z,28.05
2022-12-20T14:35:00.619Z,28.58
2022-12-20T14:37:31.803Z,31.15
2022-12-20T14:40:04.242Z,28.15
2022-12-20T14:42:37.013Z,27.75
2022-12-20T14:47:55.370Z,29.10
2022-12-20T14:50:34.525Z,26.83
2022-12-20T14:53:02.930Z,28.75
2022-12-20T14:55:32.530Z,29.25
2022-12-20T14:57:59.979Z,30.12
2022-12-20T15:00:33.409Z,28.08
2022-12-20T15:03:15.655Z,33.22
2022-12-20T15:08:17.269Z,26.87
2022-12-20T15:11:10.787Z,29.33
2022-12-20T15:13:43.192Z,29.00
2022-12-20T15:16:25.830Z,36.03
2022-12-20T15:18:56.032Z,34.03
2022-12-20T15:21:31.248Z,30.83
2022-12-20T15:24:00.971Z,34.70
2022-12-20T15:26:29.519Z,32.88
2022-12-20T15:28:57.641Z,36.53
2022-12-20T15:31:33.294Z,35.22
2022-12-20T15:34:04.851Z,37.78
2022-12-20T15:36:33.948Z,31.42
2022-12-20T15:39:17.147Z,38.53
2022-12-20T15:41:48.837Z,33.35
2022-12-20T15:44:19.382Z,33.58
2022-12-20T15:46:47.194Z,50.33
2022-12-20T15:49:28.141Z,51.40
2022-12-20T15:51:56.161Z,38.60
2022-12-20T15:54:27.565Z,35.00
2022-12-20T15:57:00.034Z,41.23
2022-12-20T16:02:29.438Z,40.45
2022-12-20T16:04:58.700Z,36.28
2022-12-20T16:07:27.296Z,35.17
2022-12-20T16:09:54.738Z,34.30
2022-12-20T16:12:32.725Z,36.50
2022-12-20T16:15:00.161Z,34.20
2022-12-20T16:17:27.878Z,37.63
2022-12-20T16:19:55.565Z,38.58
2022-12-20T16:22:24.017Z,41.03
2022-12-20T16:24:52.135Z,38.53
2022-12-20T16:27:20.399Z,36.97
2022-12-20T16:29:47.927Z,39.30
2022-12-20T16:32:17.632Z,35.75
2022-12-20T16:34:45.682Z,40.15
2022-12-20T16:37:13.340Z,38.90
2022-12-20T16:39:41.720Z,46.65
2022-12-20T16:42:14.869Z,44.60
2022-12-20T16:44:45.076Z,41.88
2022-12-20T16:47:13.991Z,39.78
2022-12-20T16:49:51.210Z,40.72
2022-12-20T16:52:22.182Z,44.10
2022-12-20T16:54:50.599Z,45.80
2022-12-20T16:57:18.354Z,47.70
2022-12-20T16:59:46.190Z,45.75
2022-12-20T17:02:26.626Z,41.30
2022-12-20T17:04:54.991Z,41.25
2022-12-20T17:07:22.601Z,37.72
2022-12-20T17:12:35.655Z,40.35
2022-12-20T17:15:04.799Z,40.70
2022-12-20T17:17:32.163Z,47.10
2022-12-20T17:20:00.062Z,52.22
2022-12-20T17:22:27.500Z,43.40
2022-12-20T17:24:54.932Z,43.15
2022-12-20T17:27:22.682Z,43.03
2022-12-20T17:29:50.749Z,40.10
2022-12-20T17:32:21.137Z,45.58
2022-12-20T17:34:49.042Z,41.05
2022-12-20T17:37:17.518Z,41.17
2022-12-20T17:39:45.031Z,44.33
2022-12-20T17:42:13.745Z,42.92
2022-12-20T17:44:41.212Z,39.38
2022-12-20T17:47:08.762Z,46.63
2022-12-20T17:49:36.624Z,42.55
2022-12-20T17:52:04.491Z,40.55
2022-12-20T17:54:39.115Z,43.72
2022-12-20T17:57:13.469Z,38.95
2022-12-20T17:59:41.399Z,41.25
2022-12-20T18:02:19.495Z,37.13
2022-12-20T18:04:47.461Z,46.40
2022-12-20T18:07:15.003Z,39.30
2022-12-20T18:09:42.477Z,39.17
2022-12-20T18:12:10.851Z,41.92
2022-12-20T18:14:38.293Z,41.72
2022-12-20T18:17:05.710Z,43.67
2022-12-20T18:19:33.457Z,43.63
2022-12-20T18:22:01.541Z,42.97
2022-12-20T18:24:28.963Z,40.40
2022-12-20T18:26:56.676Z,48.38
2022-12-20T18:29:24.027Z,36.90
2022-12-20T18:31:51.393Z,44.92
2022-12-20T18:34:19.068Z,51.95
2022-12-20T18:36:46.518Z,51.25
2022-12-20T18:39:13.970Z,47.22
2022-12-20T18:41:43.050Z,41.85
2022-12-20T18:44:11.650Z,45.38
2022-12-20T18:46:39.496Z,41.08
2022-12-20T18:49:07.213Z,42.53
2022-12-20T18:51:36.781Z,46.08
2022-12-20T18:54:06.026Z,47.22
2022-12-20T18:56:35.908Z,47.47
2022-12-20T18:59:11.448Z,48.87
2022-12-20T19:01:40.730Z,46.47
2022-12-20T19:04:08.867Z,52.03
2022-12-20T19:06:36.935Z,48.00
2022-12-20T19:09:08.020Z,43.47
2022-12-20T19:11:35.606Z,46.22
2022-12-20T19:14:03.563Z,48.85
2022-12-20T19:16:32.812Z,47.85
2022-12-20T19:19:01.915Z,48.35
2022-12-20T19:21:33.882Z,44.80
2022-12-20T19:24:06.849Z,51.25
2022-12-20T19:26:36.399Z,46.63
2022-12-20T19:29:05.140Z,45.97
2022-12-20T19:31:34.943Z,44.75
2022-12-20T19:34:05.246Z,47.97
2022-12-20T19:36:44.114Z,42.22
2022-12-20T19:39:14.728Z,46.78
2022-12-20T19:41:42.713Z,47.42
2022-12-20T19:44:10.225Z,49.53
2022-12-20T19:46:38.206Z,40.83
2022-12-20T19:49:06.288Z,47.45
2022-12-20T19:51:33.836Z,42.40
2022-12-20T19:54:01.381Z,46.50
2022-12-20T19:56:31.779Z,44.17
2022-12-20T19:58:59.601Z,44.53
2022-12-20T20:01:28.097Z,44.22
2022-12-20T20:03:58.125Z,42.62
2022-12-20T20:06:26.727Z,50.20
2022-12-20T20:08:57.477Z,38.80
2022-12-20T20:11:25.752Z,40.38
2022-12-20T20:13:53.199Z,43.22
2022-12-20T20:16:22.759Z,44.05
2022-12-20T20:18:51.226Z,40.20
2022-12-20T20:21:22.469Z,38.17
2022-12-20T20:23:51.357Z,43.47
2022-12-20T20:26:22.549Z,42.78
2022-12-20T20:28:50.457Z,48.35
2022-12-20T20:31:19.376Z,44.03
2022-12-20T20:33:47.536Z,41.53
2022-12-20T20:36:17.582Z,46.10
2022-12-20T20:38:45.607Z,42.83
2022-12-20T20:41:14.292Z,44.83
2022-12-20T20:43:42.348Z,45.05
2022-12-20T20:46:12.826Z,45.28
2022-12-20T20:48:40.928Z,53.25
2022-12-20T20:51:08.827Z,64.43
2022-12-20T20:53:36.510Z,61.22
2022-12-20T20:56:05.385Z,48.95
2022-12-20T20:58:33.674Z,52.38
2022-12-20T21:01:03.118Z,53.80
2022-12-20T21:03:31.406Z,45.08
2022-12-20T21:08:46.763Z,56.65
2022-12-20T21:11:14.376Z,45.28
2022-12-20T21:13:41.870Z,49.35
2022-12-20T21:16:12.221Z,49.78
2022-12-20T21:18:39.949Z,44.67
2022-12-20T21:21:09.314Z,45.80
2022-12-20T21:23:37.432Z,50.63
2022-12-20T21:26:05.206Z,44.15
2022-12-20T21:28:32.713Z,47.08
2022-12-20T21:31:01.838Z,42.05
2022-12-20T21:33:29.316Z,46.05
2022-12-20T21:36:00.602Z,42.08
2022-12-20T21:38:28.681Z,44.03
2022-12-20T21:41:08.108Z,43.70
2022-12-20T21:43:35.791Z,41.65
2022-12-20T21:46:03.318Z,41.90
2022-12-20T21:48:31.087Z,41.47
2022-12-20T21:51:02.802Z,42.70
2022-12-20T21:53:30.828Z,39.50
2022-12-20T21:55:59.923Z,39.85
2022-12-20T21:58:29.718Z,42.17
2022-12-20T22:00:57.697Z,44.90
2022-12-20T22:03:26.186Z,42.78
2022-12-20T22:05:55.696Z,42.40
2022-12-20T22:08:24.703Z,41.58
2022-12-20T22:11:02.314Z,40.85
2022-12-20T22:13:35.579Z,37.40
2022-12-20T22:16:10.421Z,45.15
2022-12-20T22:18:38.467Z,42.33
2022-12-20T22:21:07.600Z,40.10
2022-12-20T22:23:35.319Z,40.00
2022-12-20T22:26:04.120Z,42.90
2022-12-20T22:28:31.472Z,45.45
2022-12-20T22:30:59.150Z,39.30
2022-12-20T22:33:26.816Z,41.33
2022-12-20T22:35:54.234Z,43.75
2022-12-20T22:38:21.901Z,39.45
2022-12-20T22:40:49.299Z,42.45
2022-12-20T22:43:16.694Z,44.00
2022-12-20T22:45:44.432Z,42.97
2022-12-20T22:48:11.845Z,41.58
2022-12-20T22:50:39.210Z,43.05
2022-12-20T22:53:06.980Z,42.53
2022-12-20T22:55:34.710Z,43.63
2022-12-20T22:58:02.084Z,45.38
2022-12-20T23:00:29.724Z,39.30
2022-12-20T23:02:57.286Z,41.30
2022-12-20T23:05:24.830Z,41.97
2022-12-20T23:07:52.464Z,39.35
2022-12-20T23:10:38.636Z,44.05
2022-12-20T23:13:24.520Z,43.83
2022-12-20T23:15:51.898Z,39.47
2022-12-20T23:18:19.557Z,44.50
2022-12-20T23:21:11.924Z,42.30
2022-12-20T23:23:39.653Z,40.15
2022-12-20T23:26:16.199Z,37.20
2022-12-20T23:28:44.238Z,40.78
2022-12-20T23:31:11.686Z,39.40
2022-12-20T23:33:39.296Z,38.97
2022-12-20T23:36:07.439Z,41.00
2022-12-20T23:38:36.315Z,38.30
2022-12-20T23:41:11.334Z,38.88
2022-12-20T23:43:39.536Z,39.35
2022-12-20T23:46:11.844Z,35.28
2022-12-20T23:48:39.947Z,37.53
2022-12-20T23:51:07.607Z,39.45
2022-12-20T23:53:35.087Z,41.53
2022-12-20T23:56:10.403Z,41.72
2022-12-20T23:58:38.301Z,38.40
